VR2HK-13 Weather Reports


Display with metric or nautical units.
time (UTC)temp
F
wind
direction
speed
MPH
gust
MPH
rain 1hr
in
rain 24hr
in
rain mn
in
humidity
%
barometer
mb
20220808033435 81 16 1.0 4.0 0.00 0.98 0.00 90 1006.2
20220808032835 80 34 1.0 4.0 0.00 0.98 0.00 90 1006.4
20220808032235 80 42 1.0 3.0 0.00 0.98 0.00 90 1006.4
20220808031635 80 76 1.0 3.0 0.00 0.98 0.00 90 1006.4
20220808031035 80 45 1.0 4.0 0.00 0.98 0.00 90 1006.4
20220808030435 80 109 1.0 4.0 0.00 0.98 0.00 90 1006.4
20220808025835 80 25 0.0 4.0 0.00 0.98 0.00 90 1006.5
20220808025235 80 51 1.0 5.0 0.00 0.98 0.00 90 1006.6
20220808024635 80 55 2.0 7.0 0.00 0.98 0.00 90 1006.6
20220808024035 80 32 4.0 7.0 0.00 0.98 0.00 90 1006.6
20220808023435 80 94 3.0 7.0 0.01 0.98 0.00 90 1006.7
20220808022834 80 19 2.0 8.0 0.11 0.98 0.00 91 1006.6
20220808022234 80 25 2.0 8.0 0.16 0.98 0.00 91 1006.5
20220808021634 80 106 1.0 5.0 0.18 0.98 0.00 91 1006.5
20220808021034 80 4 0.0 5.0 0.19 0.98 0.00 92 1006.4
20220808020434 79 21 1.0 4.0 0.23 0.98 0.00 92 1006.6
20220808015834 79 40 1.0 3.0 0.23 0.98 0.00 92 1006.7
20220808014634 79 5 0.0 6.0 0.23 0.98 0.00 93 1006.9
20220808014034 79 95 2.0 10.0 0.24 0.98 0.00 93 1006.9
20220808013434 78 75 3.0 10.0 0.23 0.97 0.00 93 1007.0
20220808012834 79 39 2.0 4.0 0.13 0.87 0.00 93 1007.2
20220808012234 79 45 0.0 2.0 0.07 0.81 0.00 93 1007.1
20220808011634 79 328 0.0 5.0 0.06 0.80 0.00 93 1007.1
20220808011034 79 198 2.0 5.0 0.10 0.79 0.00 92 1007.1
20220808010434 79 59 1.0 3.0 0.20 0.75 0.00 93 1007.1
20220808005834 79 57 0.0 7.0 0.23 0.75 0.00 93 1006.8
20220808005234 79 45 1.0 7.0 0.26 0.75 0.00 93 1006.6
20220808004634 79 38 1.0 5.0 0.33 0.75 0.00 93 1006.6
20220808003434 78 41 1.0 8.0 0.61 0.74 0.00 93 1006.8
20220808002834 78 54 3.0 8.0 0.61 0.74 0.00 93 1007.0
20220808002234 77 77 2.0 6.0 0.61 0.74 0.00 92 1006.7
20220808001634 78 23 2.0 6.0 0.61 0.74 0.00 92 1006.5
20220808001034 78 277 1.0 3.0 0.55 0.68 0.00 93 1006.6
20220808000434 78 58 1.0 3.0 0.41 0.54 0.00 92 1006.6
20220807235834 78 55 1.0 4.0 0.39 0.52 0.00 92 1006.3
20220807234634 79 40 6.0 15.0 0.28 0.41 0.00 90 1006.6
20220807234034 81 34 6.0 9.0 0.06 0.19 0.00 89 1006.3
20220807233434 81 51 1.0 4.0 0.00 0.13 0.00 88 1006.0
20220807232834 81 45 1.0 4.0 0.00 0.13 0.00 88 1005.6
20220807232234 82 3 1.0 4.0 0.00 0.13 0.00 87 1005.4
20220807231634 82 166 1.0 4.0 0.00 0.13 0.00 87 1005.4
20220807231034 82 63 1.0 6.0 0.00 0.13 0.00 88 1005.4
20220807230434 82 68 1.0 5.0 0.00 0.13 0.00 88 1005.4
20220807225834 82 287 1.0 8.0 0.00 0.13 0.00 88 1005.2
20220807225233 82 24 2.0 8.0 0.00 0.13 0.00 88 1005.3
20220807224633 82 322 2.0 6.0 0.00 0.13 0.00 88 1005.3
20220807224033 81 72 1.0 9.0 0.00 0.13 0.00 88 1005.5
20220807223433 81 281 1.0 8.0 0.00 0.13 0.00 89 1005.1
20220807222833 81 244 1.0 5.0 0.00 0.13 0.00 90 1005.0
20220807222233 81 265 1.0 5.0 0.00 0.13 0.00 90 1005.3
20220807221633 81 352 1.0 4.0 0.00 0.13 0.00 90 1005.1
20220807221033 81 80 1.0 4.0 0.00 0.13 0.00 91 1004.8
20220807220433 81 52 0.0 4.0 0.00 0.13 0.00 91 1004.8
20220807215833 81 38 1.0 4.0 0.00 0.13 0.00 91 1004.8
20220807215233 81 19 0.0 1.0 0.00 0.13 0.00 91 1004.7
20220807214633 80 27 0.0 2.0 0.00 0.13 0.00 91 1004.7
20220807214033 80 177 0.0 3.0 0.00 0.13 0.00 91 1004.6
20220807213433 80 60 1.0 2.0 0.00 0.13 0.00 91 1004.8
20220807212233 80 36 1.0 6.0 0.00 0.13 0.00 91 1004.6
20220807211634 80 76 0.0 2.0 0.00 0.13 0.00 91 1004.5
20220807211033 80 192 0.0 1.0 0.02 0.13 0.00 91 1004.6
20220807210433 80 6 1.0 2.0 0.03 0.13 0.00 91 1004.6
20220807205833 80 55 1.0 2.0 0.03 0.13 0.00 91 1004.6
20220807205233 80 38 0.0 2.0 0.03 0.13 0.00 91 1004.4
20220807204633 80 60 0.0 2.0 0.03 0.13 0.00 91 1004.4
20220807204033 80 60 0.0 5.0 0.03 0.13 0.00 91 1004.4
20220807203433 80 56 1.0 5.0 0.03 0.13 0.00 91 1004.3
20220807202833 80 38 1.0 3.0 0.03 0.13 0.00 91 1004.3
20220807202233 80 82 1.0 5.0 0.03 0.13 0.00 90 1004.3
20220807201633 80 63 1.0 8.0 0.03 0.13 0.00 89 1004.4
20220807201033 80 32 1.0 3.0 0.01 0.10 0.00 89 1004.6
20220807200433 80 16 1.0 2.0 0.00 0.09 0.00 88 1004.5
20220807195833 80 1 0.0 4.0 0.00 0.09 0.00 88 1004.6
20220807195233 80 31 1.0 4.0 0.00 0.09 0.00 89 1004.8
20220807194633 80 35 0.0 3.0 0.00 0.09 0.00 89 1004.7
20220807193433 81 48 1.0 4.0 0.00 0.09 0.00 89 1004.8
20220807192832 81 78 2.0 5.0 0.05 0.09 0.00 88 1004.8
20220807192232 81 61 0.0 5.0 0.07 0.09 0.00 89 1004.7
20220807191633 81 59 1.0 6.0 0.07 0.09 0.00 89 1004.9
20220807191031 81 96 1.0 7.0 0.07 0.09 0.00 89 1004.8
20220807190431 82 359 1.0 8.0 0.07 0.09 0.00 89 1004.8
20220807185831 81 73 1.0 8.0 0.07 0.09 0.00 90 1004.8
20220807185231 81 268 2.0 7.0 0.07 0.09 0.00 90 1004.9
20220807184631 81 250 1.0 6.0 0.07 0.09 0.00 90 1005.0
20220807184031 81 217 1.0 4.0 0.07 0.09 0.00 90 1005.1
20220807183431 82 236 1.0 6.0 0.07 0.09 0.00 89 1005.3
20220807182831 82 47 1.0 6.0 0.02 0.03 0.00 89 1005.5
20220807182231 82 337 2.0 6.0 0.00 0.01 0.00 88 1005.5
20220807181631 82 296 2.0 5.0 0.00 0.01 0.00 88 1005.4
20220807181031 82 33 1.0 4.0 0.00 0.01 0.00 88 1005.6
20220807180431 82 258 1.0 4.0 0.00 0.01 0.00 88 1005.6
20220807175831 82 130 0.0 4.0 0.00 0.01 0.00 89 1005.8
20220807175231 82 289 2.0 5.0 0.00 0.01 0.00 88 1005.7
20220807174031 82 25 1.0 3.0 0.00 0.01 0.00 88 1005.7
20220807173431 82 306 1.0 2.0 0.00 0.01 0.00 88 1005.7
20220807172831 82 263 1.0 2.0 0.00 0.01 0.00 88 1005.9
20220807172231 82 188 0.0 3.0 0.00 0.01 0.00 88 1006.0
20220807171631 82 10 1.0 5.0 0.00 0.01 0.00 88 1005.8
20220807171031 82 16 1.0 8.0 0.00 0.01 0.00 88 1006.0
20220807170431 82 77 2.0 5.0 0.00 0.01 0.00 88 1006.1
20220807165831 82 218 0.0 2.0 0.00 0.01 0.00 88 1006.1
20220807165231 82 276 1.0 1.0 0.00 0.01 0.00 88 1006.2
20220807164031 82 224 1.0 4.0 0.00 0.01 0.00 88 1006.4
20220807163431 82 303 1.0 7.0 0.00 0.01 0.00 88 1006.5
20220807162831 82 51 2.0 7.0 0.00 0.01 0.00 88 1006.6
20220807162231 82 340 0.0 3.0 0.00 0.01 0.00 88 1006.6
20220807161631 82 285 1.0 3.0 0.00 0.01 0.00 88 1006.6
20220807161031 82 285 1.0 4.0 0.00 0.01 0.00 88 1006.5
20220807160431 82 220 0.0 3.0 0.00 0.01 0.00 88 1006.4
20220807155831 82 254 2.0 3.0 0.00 0.01 0.00 87 1006.5
20220807155231 82 239 1.0 5.0 0.00 0.01 0.00 87 1006.5
20220807154030 82 103 5.0 9.0 0.00 0.01 0.00 87 1006.7
20220807153430 82 95 1.0 5.0 0.00 0.01 0.00 87 1006.7
20220807152230 82 12 0.0 3.0 0.00 0.01 0.00 87 1007.0
20220807151631 82 32 1.0 3.0 0.01 0.01 0.00 87 1007.1
20220807151030 82 13 1.0 3.0 0.01 0.01 0.00 87 1007.1
20220807150430 82 316 0.0 3.0 0.01 0.01 0.00 87 1007.0
20220807145830 82 206 0.0 5.0 0.01 0.01 0.00 87 1007.1
20220807145230 82 257 1.0 4.0 0.01 0.01 0.00 87 1007.0
20220807144030 82 350 1.0 8.0 0.01 0.01 0.00 87 1007.0
20220807143430 82 233 2.0 8.0 0.01 0.01 0.00 86 1007.1
20220807142830 82 257 1.0 12.0 0.01 0.01 0.00 86 1007.4
20220807142230 82 233 3.0 13.0 0.01 0.01 0.00 85 1007.3
20220807141630 83 289 1.0 13.0 0.00 0.00 0.00 84 1007.0
20220807141030 84 27 2.0 11.0 0.00 0.00 0.00 83 1007.0
20220807140430 84 318 2.0 9.0 0.00 0.00 0.00 84 1006.8
20220807135830 84 14 3.0 9.0 0.00 0.00 0.00 84 1006.8
20220807135230 84 21 3.0 9.0 0.00 0.00 0.00 84 1006.8
20220807134030 84 145 2.0 8.0 0.00 0.00 0.00 84 1006.7
20220807133430 84 243 0.0 4.0 0.00 0.00 0.00 84 1006.6
20220807132830 84 250 1.0 9.0 0.00 0.00 0.00 84 1006.7
20220807132230 84 279 1.0 5.0 0.00 0.00 0.00 85 1006.8
20220807131030 84 18 2.0 8.0 0.00 0.05 0.00 84 1006.6
20220807130430 84 37 3.0 10.0 0.00 0.06 0.00 84 1006.5
20220807125830 84 351 2.0 4.0 0.00 0.06 0.00 84 1006.5
20220807125229 84 16 1.0 8.0 0.00 0.06 0.00 84 1006.3
20220807124630 84 262 1.0 15.0 0.00 0.06 0.00 84 1006.2
20220807124030 84 327 2.0 15.0 0.00 0.06 0.00 84 1006.1
20220807123430 84 21 2.0 10.0 0.00 0.06 0.00 84 1006.0
20220807122829 84 265 1.0 9.0 0.00 0.06 0.00 84 1005.9
20220807122229 84 221 3.0 11.0 0.00 0.06 0.00 84 1005.9
20220807121630 84 219 6.0 11.0 0.00 0.06 0.00 85 1005.6
20220807121029 84 57 1.0 10.0 0.00 0.06 0.00 86 1005.5
20220807120429 84 6 2.0 7.0 0.00 0.06 0.00 86 1005.4
20220807115829 84 278 3.0 7.0 0.00 0.06 0.00 86 1005.3
20220807115229 84 189 1.0 12.0 0.00 0.06 0.00 86 1005.3
20220807114629 84 235 1.0 5.0 0.00 0.06 0.00 85 1005.2
20220807114029 84 157 1.0 6.0 0.00 0.06 0.00 85 1005.2
20220807113429 84 239 3.0 7.0 0.00 0.06 0.00 85 1005.1
20220807112229 84 276 3.0 16.0 0.00 0.06 0.00 85 1004.9
20220807111629 84 56 1.0 13.0 0.00 0.06 0.00 86 1005.0
20220807111029 84 246 2.0 13.0 0.00 0.06 0.00 86 1004.8
20220807110429 84 281 2.0 6.0 0.00 0.06 0.00 85 1004.7
20220807105829 84 335 2.0 10.0 0.00 0.06 0.00 86 1004.7
20220807105229 84 49 5.0 10.0 0.00 0.06 0.00 86 1004.7
20220807104629 84 293 1.0 8.0 0.00 0.06 0.00 86 1004.6
20220807104029 85 42 2.0 8.0 0.00 0.06 0.00 85 1004.6
20220807103429 85 353 2.0 6.0 0.00 0.06 0.00 85 1004.5
20220807102829 85 345 1.0 5.0 0.00 0.06 0.00 85 1004.5
20220807102229 85 31 1.0 5.0 0.00 0.06 0.00 84 1004.5
20220807101629 85 218 2.0 4.0 0.00 0.06 0.00 84 1004.3
20220807101029 86 331 1.0 12.0 0.00 0.06 0.00 83 1004.3
20220807100429 86 283 2.0 9.0 0.00 0.06 0.00 82 1004.3
20220807095829 87 314 2.0 10.0 0.00 0.06 0.00 81 1004.2
20220807095229 87 125 2.0 10.0 0.00 0.06 0.00 81 1004.3
20220807094629 87 305 2.0 7.0 0.00 0.06 0.00 81 1004.3
20220807094029 87 259 1.0 12.0 0.00 0.06 0.00 80 1004.3
20220807093429 88 23 3.0 12.0 0.00 0.06 0.00 79 1004.3
20220807092229 88 213 2.0 10.0 0.00 0.06 0.00 80 1004.0
20220807091628 88 141 1.0 10.0 0.00 0.06 0.00 80 1004.0
20220807091028 88 316 3.0 8.0 0.00 0.06 0.00 79 1003.8
20220807090429 89 258 1.0 11.0 0.00 0.06 0.00 79 1003.8
20220807085828 88 62 3.0 11.0 0.00 0.06 0.00 78 1004.0
20220807085229 89 46 3.0 11.0 0.00 0.06 0.00 77 1004.0
20220807084028 90 44 1.0 8.0 0.00 0.06 0.00 76 1003.9
20220807083428 91 335 2.0 6.0 0.00 0.06 0.00 76 1003.9
20220807082829 90 238 2.0 5.0 0.00 0.06 0.00 77 1004.0
20220807082228 88 299 2.0 11.0 0.00 0.06 0.00 79 1004.0
20220807081628 88 32 4.0 10.0 0.00 0.06 0.00 78 1004.2
20220807080428 88 78 3.0 12.0 0.00 0.06 0.00 78 1004.0
20220807075828 89 22 2.0 10.0 0.00 0.06 0.00 78 1003.9
20220807075228 89 359 1.0 10.0 0.00 0.06 0.00 77 1004.0
20220807074628 89 225 1.0 10.0 0.00 0.06 0.00 77 1004.0
20220807074028 90 272 1.0 6.0 0.00 0.07 0.00 77 1003.9
20220807073428 88 161 3.0 6.0 0.00 0.10 0.00 77 1004.2
20220807072828 88 243 2.0 6.0 0.00 0.11 0.00 77 1004.2
20220807071628 87 255 1.0 8.0 0.00 0.22 0.00 80 1004.4
20220807071028 87 90 3.0 8.0 0.00 0.22 0.00 80 1004.4
20220807070428 87 45 2.0 9.0 0.00 0.22 0.00 79 1004.4
20220807065828 88 86 3.0 9.0 0.00 0.23 0.00 78 1004.4
20220807065228 90 70 1.0 11.0 0.00 0.32 0.00 78 1004.6
20220807064628 90 2 4.0 14.0 0.00 0.39 0.00 75 1004.7
20220807064028 90 134 3.0 14.0 0.00 0.39 0.00 77 1004.8
20220807063428 89 251 3.0 7.0 0.00 0.39 0.00 78 1004.8
20220807062828 89 247 1.0 13.0 0.00 0.39 0.00 79 1004.8
20220807062228 90 12 2.0 7.0 0.00 0.39 0.00 78 1004.9
20220807061628 91 9 3.0 7.0 0.00 0.39 0.00 77 1004.9
20220807061028 90 75 3.0 6.0 0.00 0.39 0.00 79 1004.9
20220807060428 89 17 2.0 8.0 0.00 0.39 0.00 80 1004.9
20220807055828 87 230 2.0 7.0 0.00 0.39 0.00 81 1005.1
20220807055228 87 75 2.0 9.0 0.00 0.39 0.00 82 1005.2
20220807054628 87 114 4.0 9.0 0.00 0.39 0.00 82 1005.2
20220807054027 87 27 1.0 12.0 0.00 0.39 0.00 82 1005.3
20220807053427 87 43 6.0 12.0 0.00 0.39 0.00 81 1005.4
20220807052827 88 46 2.0 8.0 0.00 0.39 0.00 81 1005.5
20220807052227 87 102 1.0 8.0 0.00 0.39 0.00 82 1005.4
20220807051627 86 91 1.0 7.0 0.00 0.39 0.00 84 1005.5
20220807051027 85 357 1.0 7.0 0.00 0.39 0.00 87 1005.6
20220807050427 84 159 3.0 7.0 0.00 0.40 0.00 86 1005.6
20220807045827 84 235 2.0 6.0 0.00 0.42 0.00 88 1005.6
20220807045227 84 289 1.0 9.0 0.00 0.46 0.00 87 1005.7
20220807044627 85 111 1.0 13.0 0.00 0.48 0.00 85 1005.8
20220807044027 87 206 6.0 13.0 0.00 0.48 0.00 79 1005.7
20220807043427 89 215 2.0 10.0 0.00 0.48 0.00 79 1005.7
20220807042827 89 36 2.0 10.0 0.00 0.48 0.00 78 1005.7
20220807042227 89 54 3.0 10.0 0.00 0.48 0.00 78 1005.6
20220807041627 89 119 3.0 10.0 0.00 0.48 0.00 78 1005.7
20220807041027 88 33 1.0 7.0 0.00 0.48 0.00 80 1005.7
20220807040427 88 28 3.0 7.0 0.00 0.48 0.00 79 1005.9
20220807035827 87 222 1.0 11.0 0.00 0.48 0.00 81 1005.8
20220807035227 86 44 4.0 11.0 0.00 0.48 0.00 81 1006.0
20220807034627 86 43 3.0 16.0 0.00 0.48 0.00 82 1006.1
20220807034027 86 48 4.0 16.0 0.00 0.48 0.00 81 1006.3